MMHO/HMO METAR and TAF weather

Enter ICAO airport designator
Station Type Date Time Source
MMHO METAR 2020/04/04 05:40 UTC NOAA

MMHO 040540Z 00000KT 10SM BKN120 OVC200 19/10 A2988 RMK SLP120 52020 956 8/017 HZY


Station Type Date Time Source
MMHO Decoded METAR 2020/04/04 05:40 UTC NOAA

Hermosillo, Son., Mexico (MMHO) 29-04N 110-57W
Apr 04, 2020 - 01:40 AM EDT / 2020.04.04 0540 UTC
Wind: Calm:0
Visibility: 10 mile(s):0
Sky conditions: overcast
Temperature: 66 F (19 C)
Dew Point: 50 F (10 C)
Relative Humidity: 55%
Pressure (altimeter): 29.88 in. Hg (1011 hPa)
Pressure tendency: 0.06 inches (2.0 hPa) higher than three hours ago
ob: MMHO 040540Z 00000KT 10SM BKN120 OVC200 19/10 A2988 RMK SLP120 52020 956 8/017 HZY
cycle: 5

Station Type Date Time Source
MMHO TAF 2020/04/04 06:26 UTC NOAA

TAF MMHO 040413Z 0406/0506 00000KT P6SM BKN250
FM041800 22012KT P6SM BKN100 OVC250
FM050500 00000KT P6SM BKN250

Example: see airport list